CheckWX is a tool to help pilots better visualize weather data.  It is not intended as a substitute for an official pre-flight weather briefing.

20:59:57 UTC

DNMN TAF
Minna Airport
Minna, Nigeria
TAF DNMN 161540Z 1618/1724 22006KT 9999 BKN013 FEW020CB TEMPO 1618/1623 07016KT 5000 -TSRA BKN009 FEW018CB BECMG 1623/1701 16006KT 9999 FEW009

Jun-16@
18:00 UTC

Jun-16 @ 18:00 UTC

Jun-16@
23:00 UTC

Jun-16 @ 23:00 UTC

TAF DNMN 161540Z 1618/1724 22006KT 9999 BKN013 FEW020CB
Wind
  • 220° at 6 KTS
Cloud Levels
  • Broken at 1,300' AGL
  • Few at 2,000' AGL

Jun-16@
18:00 UTC

Jun-16 @ 18:00 UTC

Jun-16@
23:00 UTC

Jun-16 @ 23:00 UTC

TEMPO 1618/1623 07016KT 5000 -TSRA BKN009 FEW018CB

Temporary

Temporary Changes expected for less than half the time period

Wind
  • 070° at 16 KTS
Conditions
Light Thunderstorm, Light Rain
Cloud Levels
  • Broken at 900' AGL
  • Few at 1,800' AGL

Jun-16@
23:00 UTC

Jun-16 @ 23:00 UTC

Jun-18@
00:00 UTC

Jun-18 @ 00:00 UTC

BECMG 1623/1701 16006KT 9999 FEW009

Becoming

Becoming Conditions expected by Mon, Jun 17, 2019 @ 01:00 UTC

Wind
  • 160° at 6 KTS
Cloud Levels
  • Few at 900' AGL